createdAt,value
2022-08-17T00:00:34.323Z,25.22
2022-08-17T00:02:59.839Z,25.17
2022-08-17T00:05:32.029Z,25.14
2022-08-17T00:08:01.642Z,25.10
2022-08-17T00:10:29.605Z,25.06
2022-08-17T00:13:00.686Z,25.03
2022-08-17T00:15:28.652Z,24.99
2022-08-17T00:17:56.728Z,24.97
2022-08-17T00:20:30.597Z,24.93
2022-08-17T00:23:05.392Z,24.91
2022-08-17T00:25:33.574Z,24.87
2022-08-17T00:28:02.143Z,24.84
2022-08-17T00:30:30.220Z,24.81
2022-08-17T00:33:20.139Z,24.77
2022-08-17T00:35:48.580Z,24.75
2022-08-17T00:38:17.981Z,24.72
2022-08-17T00:40:47.263Z,24.70
2022-08-17T00:43:17.507Z,24.67
2022-08-17T00:45:45.950Z,24.65
2022-08-17T00:48:29.028Z,24.62
2022-08-17T00:50:59.750Z,24.59
2022-08-17T00:53:34.191Z,24.57
2022-08-17T00:56:03.363Z,24.55
2022-08-17T00:58:36.115Z,24.52
2022-08-17T01:01:05.260Z,24.50
2022-08-17T01:03:33.964Z,24.49
2022-08-17T01:06:03.366Z,24.47
2022-08-17T01:08:33.362Z,24.46
2022-08-17T01:11:02.679Z,24.45
2022-08-17T01:13:36.772Z,24.43
2022-08-17T01:16:10.932Z,24.41
2022-08-17T01:18:39.140Z,24.39
2022-08-17T01:21:10.457Z,24.38
2022-08-17T01:23:42.253Z,24.35
2022-08-17T01:26:10.213Z,24.32
2022-08-17T01:28:54.743Z,24.29
2022-08-17T01:31:25.818Z,24.28
2022-08-17T01:33:53.792Z,24.25
2022-08-17T01:36:22.582Z,24.21
2022-08-17T01:38:52.701Z,24.18
2022-08-17T01:41:22.827Z,24.17
2022-08-17T01:43:53.312Z,24.13
2022-08-17T01:46:22.473Z,24.11
2022-08-17T01:48:51.588Z,24.08
2022-08-17T01:51:19.975Z,24.06
2022-08-17T01:53:49.472Z,24.02
2022-08-17T01:56:20.075Z,24.00
2022-08-17T01:58:48.274Z,23.96
2022-08-17T02:01:18.208Z,23.92
2022-08-17T02:03:56.142Z,23.89
2022-08-17T02:06:29.091Z,23.82
2022-08-17T02:09:02.651Z,23.79
2022-08-17T02:11:34.005Z,23.73
2022-08-17T02:14:04.131Z,23.68
2022-08-17T02:16:36.947Z,23.63
2022-08-17T02:19:06.651Z,23.58
2022-08-17T02:21:34.617Z,23.53
2022-08-17T02:24:02.934Z,23.46
2022-08-17T02:26:31.134Z,23.43
2022-08-17T02:29:00.657Z,23.37
2022-08-17T02:31:28.616Z,23.33
2022-08-17T02:34:03.695Z,23.29
2022-08-17T02:36:33.423Z,23.26
2022-08-17T02:39:01.864Z,23.21
2022-08-17T02:41:29.826Z,23.17
2022-08-17T02:43:57.671Z,23.14
2022-08-17T02:46:27.307Z,23.10
2022-08-17T02:48:55.270Z,23.07
2022-08-17T02:51:23.229Z,23.04
2022-08-17T02:53:51.193Z,23.01
2022-08-17T02:56:19.272Z,22.98
2022-08-17T02:58:47.482Z,22.94
2022-08-17T03:01:15.580Z,22.90
2022-08-17T03:03:45.077Z,22.86
2022-08-17T03:06:12.922Z,22.84
2022-08-17T03:08:40.882Z,22.81
2022-08-17T03:11:08.735Z,22.78
2022-08-17T03:13:36.686Z,22.76
2022-08-17T03:16:05.007Z,22.74
2022-08-17T03:18:32.968Z,22.71
2022-08-17T03:21:04.355Z,22.69
2022-08-17T03:23:32.976Z,22.66
2022-08-17T03:26:01.415Z,22.63
2022-08-17T03:28:30.334Z,22.61
2022-08-17T03:30:58.547Z,22.59
2022-08-17T03:33:26.739Z,22.56
2022-08-17T03:35:54.704Z,22.55
2022-08-17T03:38:24.341Z,22.52
2022-08-17T03:40:57.226Z,22.49
2022-08-17T03:43:29.273Z,22.47
2022-08-17T03:46:28.725Z,22.45
2022-08-17T03:49:23.991Z,22.42
2022-08-17T03:52:09.597Z,22.40
2022-08-17T03:54:56.636Z,22.36
2022-08-17T03:57:24.715Z,22.33
2022-08-17T03:59:52.915Z,22.31
2022-08-17T04:02:22.801Z,22.29
2022-08-17T04:04:52.485Z,22.25
2022-08-17T04:07:21.003Z,22.22
2022-08-17T04:09:50.655Z,22.19
2022-08-17T04:12:19.579Z,22.16
2022-08-17T04:14:52.827Z,22.14
2022-08-17T04:17:23.050Z,22.12
2022-08-17T04:19:51.019Z,22.09
2022-08-17T04:22:30.803Z,22.09
2022-08-17T04:25:05.193Z,22.07
2022-08-17T04:27:34.696Z,22.08
2022-08-17T04:30:02.777Z,22.07
2022-08-17T04:33:05.011Z,22.06
2022-08-17T04:35:20.419Z,22.06
2022-08-17T04:37:48.748Z,22.07
2022-08-17T04:40:36.383Z,22.06
2022-08-17T04:43:06.030Z,22.05
2022-08-17T04:45:34.107Z,22.05
2022-08-17T04:48:02.432Z,22.04
2022-08-17T04:50:30.513Z,22.04
2022-08-17T04:52:58.981Z,22.03
2022-08-17T04:55:28.719Z,22.03
2022-08-17T04:57:56.915Z,22.01
2022-08-17T05:00:26.080Z,22.00
2022-08-17T05:02:55.730Z,22.00
2022-08-17T05:05:25.241Z,21.98
2022-08-17T05:07:54.524Z,21.99
2022-08-17T05:10:22.490Z,21.99
2022-08-17T05:13:00.056Z,21.97
2022-08-17T05:15:28.967Z,21.98
2022-08-17T05:18:01.375Z,21.98
2022-08-17T05:20:31.260Z,21.99
2022-08-17T05:23:01.021Z,22.00
2022-08-17T05:25:29.577Z,22.02
2022-08-17T05:28:02.461Z,22.03
2022-08-17T05:30:30.552Z,22.05
2022-08-17T05:33:00.187Z,22.07
2022-08-17T05:35:29.581Z,22.08
2022-08-17T05:37:57.542Z,22.10
2022-08-17T05:40:27.065Z,22.12
2022-08-17T05:43:10.387Z,22.14
2022-08-17T05:45:55.202Z,22.16
2022-08-17T05:48:36.747Z,22.18
2022-08-17T05:51:16.756Z,22.20
2022-08-17T05:53:53.240Z,22.23
2022-08-17T05:56:29.969Z,22.24
2022-08-17T05:59:05.117Z,22.28
2022-08-17T06:01:36.377Z,22.31
2022-08-17T06:04:17.003Z,22.33
2022-08-17T06:06:51.806Z,22.36
2022-08-17T06:09:33.617Z,22.39
2022-08-17T06:12:04.765Z,22.40
2022-08-17T06:14:46.052Z,22.43
2022-08-17T06:17:15.570Z,22.46
2022-08-17T06:19:45.332Z,22.48
2022-08-17T06:22:15.578Z,22.52
2022-08-17T06:24:45.220Z,22.54
2022-08-17T06:27:19.178Z,22.58
2022-08-17T06:29:54.230Z,22.61
2022-08-17T06:32:23.265Z,22.66
2022-08-17T06:34:51.584Z,22.68
2022-08-17T06:37:25.554Z,22.72
2022-08-17T06:39:56.588Z,22.78
2022-08-17T06:43:02.514Z,22.80
2022-08-17T06:45:21.349Z,22.86
2022-08-17T06:47:53.992Z,22.90
2022-08-17T06:50:28.314Z,22.94
2022-08-17T06:52:59.202Z,22.99
2022-08-17T06:55:35.799Z,23.03
2022-08-17T06:58:16.029Z,23.08
2022-08-17T07:00:48.411Z,23.12
2022-08-17T07:03:21.006Z,23.16
2022-08-17T07:05:52.924Z,23.20
2022-08-17T07:08:35.311Z,23.25
2022-08-17T07:11:09.853Z,23.29
2022-08-17T07:13:49.168Z,23.34
2022-08-17T07:16:23.429Z,23.38
2022-08-17T07:18:53.069Z,23.42
2022-08-17T07:21:28.957Z,23.46
2022-08-17T07:24:02.075Z,23.50
2022-08-17T07:26:30.152Z,23.55
2022-08-17T07:28:58.587Z,23.59
2022-08-17T07:31:30.625Z,23.64
2022-08-17T07:34:08.433Z,23.68
2022-08-17T07:36:43.831Z,23.73
2022-08-17T07:39:12.147Z,23.79
2022-08-17T07:41:53.025Z,23.84
2022-08-17T07:44:29.909Z,23.89
2022-08-17T07:47:19.606Z,23.95
2022-08-17T07:49:49.000Z,24.01
2022-08-17T07:52:50.715Z,24.06
2022-08-17T07:55:27.169Z,24.12
2022-08-17T07:57:57.534Z,24.19
2022-08-17T08:00:31.484Z,24.24
2022-08-17T08:03:18.769Z,24.29
2022-08-17T08:05:53.094Z,24.34
2022-08-17T08:08:26.807Z,24.39
2022-08-17T08:11:19.132Z,24.42
2022-08-17T08:13:49.977Z,24.45
2022-08-17T08:16:26.212Z,24.48
2022-08-17T08:18:57.173Z,24.52
2022-08-17T08:21:34.522Z,24.55
2022-08-17T08:24:09.785Z,24.58
2022-08-17T08:26:42.457Z,24.62
2022-08-17T08:29:18.319Z,24.65
2022-08-17T08:31:52.033Z,24.69
2022-08-17T08:34:59.103Z,24.71
2022-08-17T08:37:30.366Z,24.75
2022-08-17T08:40:08.424Z,24.79
2022-08-17T08:42:40.509Z,24.82
2022-08-17T08:45:13.760Z,24.85
2022-08-17T08:47:52.552Z,24.87
2022-08-17T08:50:38.145Z,24.88
2022-08-17T08:53:27.678Z,24.90
2022-08-17T08:56:00.562Z,24.90
2022-08-17T08:58:41.295Z,24.90
2022-08-17T09:01:16.850Z,24.89
2022-08-17T09:04:23.391Z,24.88
2022-08-17T09:06:59.742Z,24.85
2022-08-17T09:09:32.141Z,24.83
2022-08-17T09:12:06.813Z,24.81
2022-08-17T09:14:46.472Z,24.80
2022-08-17T09:17:18.425Z,24.78
2022-08-17T09:19:49.664Z,24.77
2022-08-17T09:22:23.259Z,24.76
2022-08-17T09:24:54.711Z,24.75
2022-08-17T09:27:26.866Z,24.74
2022-08-17T09:29:57.876Z,24.73
2022-08-17T09:32:29.743Z,24.73
2022-08-17T09:35:01.551Z,24.71
2022-08-17T09:37:33.827Z,24.70
2022-08-17T09:40:08.805Z,24.70
2022-08-17T09:42:43.909Z,24.69
2022-08-17T09:45:24.237Z,24.68
2022-08-17T09:47:55.800Z,24.67
2022-08-17T09:51:03.915Z,24.67
2022-08-17T09:53:16.206Z,24.65
2022-08-17T09:55:51.844Z,24.63
2022-08-17T09:58:29.075Z,24.60
2022-08-17T10:01:03.312Z,24.59
2022-08-17T10:03:49.087Z,24.58
2022-08-17T10:06:22.295Z,24.55
2022-08-17T10:08:55.448Z,24.51
2022-08-17T10:11:50.487Z,24.49
2022-08-17T10:14:37.412Z,24.47
2022-08-17T10:17:16.937Z,24.43
2022-08-17T10:19:51.145Z,24.41
2022-08-17T10:22:41.805Z,24.40
2022-08-17T10:25:42.929Z,24.36
2022-08-17T10:28:19.850Z,24.33
2022-08-17T10:31:10.434Z,24.31
2022-08-17T10:33:51.026Z,24.29
2022-08-17T10:36:23.545Z,24.27
2022-08-17T10:39:00.146Z,24.25
2022-08-17T10:41:30.631Z,24.23
2022-08-17T10:44:36.955Z,24.21
2022-08-17T10:46:59.675Z,24.19
2022-08-17T10:49:30.523Z,24.17
2022-08-17T10:52:00.047Z,24.15
2022-08-17T10:54:46.140Z,24.14
2022-08-17T10:57:29.087Z,24.12
2022-08-17T10:59:57.774Z,24.10
2022-08-17T11:02:30.645Z,24.09
2022-08-17T11:05:11.333Z,24.07
2022-08-17T11:07:46.487Z,24.06
2022-08-17T11:10:24.410Z,24.04
2022-08-17T11:13:01.292Z,24.02
2022-08-17T11:15:38.935Z,24.01
2022-08-17T11:18:20.333Z,24.01
2022-08-17T11:21:06.306Z,24.00
2022-08-17T11:23:49.168Z,24.00
2022-08-17T11:26:26.103Z,24.02
2022-08-17T11:28:58.987Z,24.04
2022-08-17T11:31:38.837Z,24.08
2022-08-17T11:34:14.716Z,24.14
2022-08-17T11:36:52.525Z,24.22
2022-08-17T11:39:31.221Z,24.30
2022-08-17T11:42:06.191Z,24.40
2022-08-17T11:44:48.205Z,24.51
2022-08-17T11:47:36.916Z,24.65
2022-08-17T11:50:41.475Z,24.78
2022-08-17T11:53:31.157Z,24.95
2022-08-17T11:56:03.440Z,25.10
2022-08-17T11:58:37.463Z,25.23
2022-08-17T12:01:07.053Z,25.36
2022-08-17T12:03:54.113Z,25.48
2022-08-17T12:06:33.213Z,25.61
2022-08-17T12:09:08.042Z,25.71
2022-08-17T12:11:55.124Z,25.81
2022-08-17T12:15:05.898Z,25.92
2022-08-17T12:17:39.484Z,26.02
2022-08-17T12:20:12.712Z,26.10
2022-08-17T12:22:46.417Z,26.19
2022-08-17T12:25:20.648Z,26.27
2022-08-17T12:28:06.468Z,26.33
2022-08-17T12:30:36.710Z,26.41
2022-08-17T12:33:04.904Z,26.46
2022-08-17T12:35:35.373Z,26.54
2022-08-17T12:38:04.546Z,26.59
2022-08-17T12:40:34.207Z,26.63
2022-08-17T12:43:04.076Z,26.67
2022-08-17T12:45:32.870Z,26.70
2022-08-17T12:48:02.772Z,26.73
2022-08-17T12:50:32.278Z,26.75
2022-08-17T12:53:02.448Z,26.77
2022-08-17T12:55:32.602Z,26.78
2022-08-17T12:58:03.502Z,26.79
2022-08-17T13:00:34.714Z,26.80
2022-08-17T13:03:05.903Z,26.81
2022-08-17T13:05:36.243Z,26.81
2022-08-17T13:08:05.884Z,26.83
2022-08-17T13:10:34.813Z,26.83
2022-08-17T13:13:06.151Z,26.83
2022-08-17T13:15:38.536Z,26.84
2022-08-17T13:18:28.090Z,26.85
2022-08-17T13:20:58.814Z,26.86
2022-08-17T13:23:29.054Z,26.87
2022-08-17T13:25:59.059Z,26.89
2022-08-17T13:28:35.451Z,26.91
2022-08-17T13:31:24.181Z,26.94
2022-08-17T13:33:52.222Z,26.96
2022-08-17T13:36:33.994Z,26.98
2022-08-17T13:39:07.826Z,26.98
2022-08-17T13:41:36.986Z,26.98
2022-08-17T13:46:59.593Z,26.98
2022-08-17T13:49:48.417Z,26.98
2022-08-17T13:52:33.577Z,26.98
2022-08-17T13:55:02.513Z,26.96
2022-08-17T13:57:30.324Z,26.96
2022-08-17T14:00:07.641Z,26.95
2022-08-17T14:02:37.283Z,26.96
2022-08-17T14:05:06.166Z,26.97
2022-08-17T14:07:36.099Z,26.97
2022-08-17T14:10:06.966Z,26.97
2022-08-17T14:12:35.497Z,26.98
2022-08-17T14:15:03.306Z,26.97
2022-08-17T14:17:36.517Z,26.97
2022-08-17T14:20:10.669Z,26.96
2022-08-17T14:22:40.130Z,26.96
2022-08-17T14:25:10.317Z,26.95
2022-08-17T14:27:52.142Z,26.93
2022-08-17T14:30:21.791Z,26.92
2022-08-17T14:32:52.921Z,26.90
2022-08-17T14:35:23.770Z,26.89
2022-08-17T14:37:52.111Z,26.87
2022-08-17T14:40:24.567Z,26.86
2022-08-17T14:42:54.051Z,26.85
2022-08-17T14:45:29.830Z,26.84
2022-08-17T14:48:01.188Z,26.82
2022-08-17T14:50:30.520Z,26.82
2022-08-17T14:53:01.415Z,26.81
2022-08-17T14:55:29.751Z,26.80
2022-08-17T14:57:57.436Z,26.81
2022-08-17T15:00:25.373Z,26.80
2022-08-17T15:02:54.867Z,26.80
2022-08-17T15:05:24.535Z,26.78
2022-08-17T15:07:53.954Z,26.78
2022-08-17T15:10:21.788Z,26.79
2022-08-17T15:12:49.477Z,26.78
2022-08-17T15:15:18.469Z,26.79
2022-08-17T15:17:46.312Z,26.80
2022-08-17T15:20:15.254Z,26.81
2022-08-17T15:22:44.007Z,26.82
2022-08-17T15:25:14.683Z,26.82
2022-08-17T15:27:42.382Z,26.83
2022-08-17T15:30:11.001Z,26.83
2022-08-17T15:32:39.671Z,26.84
2022-08-17T15:35:08.774Z,26.83
2022-08-17T15:37:36.509Z,26.84
2022-08-17T15:40:05.068Z,26.84
2022-08-17T15:42:35.428Z,26.86
2022-08-17T15:45:06.716Z,26.85
2022-08-17T15:47:34.637Z,26.87
2022-08-17T15:50:05.434Z,26.87
2022-08-17T15:52:37.917Z,26.87
2022-08-17T15:55:06.295Z,26.88
2022-08-17T15:57:35.378Z,26.86
2022-08-17T16:00:03.580Z,26.87
2022-08-17T16:03:45.668Z,26.86
2022-08-17T16:05:31.240Z,26.85
2022-08-17T16:07:59.653Z,26.82
2022-08-17T16:10:35.197Z,26.82
2022-08-17T16:13:05.298Z,26.78
2022-08-17T16:15:44.951Z,26.75
2022-08-17T16:18:16.575Z,26.74
2022-08-17T16:20:44.392Z,26.71
2022-08-17T16:23:15.078Z,26.69
2022-08-17T16:25:53.791Z,26.65
2022-08-17T16:28:35.947Z,26.63
2022-08-17T16:31:05.896Z,26.60
2022-08-17T16:33:36.653Z,26.58
2022-08-17T16:36:04.573Z,26.55
2022-08-17T16:38:32.309Z,26.52
2022-08-17T16:40:59.973Z,26.50
2022-08-17T16:43:29.983Z,26.48
2022-08-17T16:45:57.938Z,26.45
2022-08-17T16:48:25.616Z,26.42
2022-08-17T16:51:02.941Z,26.40
2022-08-17T16:53:31.349Z,26.38
2022-08-17T16:55:59.005Z,26.35
2022-08-17T16:58:26.785Z,26.33
2022-08-17T17:00:59.699Z,26.32
2022-08-17T17:03:29.133Z,26.30
2022-08-17T17:06:00.241Z,26.27
2022-08-17T17:08:32.972Z,26.25
2022-08-17T17:11:04.049Z,26.25
2022-08-17T17:13:41.104Z,26.23
2022-08-17T17:16:17.497Z,26.21
2022-08-17T17:18:52.133Z,26.21
2022-08-17T17:21:22.548Z,26.19
2022-08-17T17:23:54.674Z,26.17
2022-08-17T17:26:27.484Z,26.17
2022-08-17T17:29:04.998Z,26.14
2022-08-17T17:31:38.262Z,26.13
2022-08-17T17:34:07.545Z,26.10
2022-08-17T17:36:38.448Z,26.08
2022-08-17T17:39:07.583Z,26.07
2022-08-17T17:41:37.961Z,26.06
2022-08-17T17:44:07.714Z,26.04
2022-08-17T17:46:38.854Z,26.01
2022-08-17T17:49:08.320Z,25.99
2022-08-17T17:52:06.624Z,25.96
2022-08-17T17:54:35.131Z,25.93
2022-08-17T17:57:08.343Z,25.90
2022-08-17T17:59:44.067Z,25.88
2022-08-17T18:02:41.968Z,25.85
2022-08-17T18:05:19.314Z,25.81
2022-08-17T18:07:54.278Z,25.79
2022-08-17T18:10:30.524Z,25.75
2022-08-17T18:13:08.156Z,25.72
2022-08-17T18:15:37.956Z,25.70
2022-08-17T18:18:31.096Z,25.66
2022-08-17T18:21:04.265Z,25.62
2022-08-17T18:23:33.066Z,25.58
2022-08-17T18:26:01.847Z,25.54
2022-08-17T18:28:31.589Z,25.50
2022-08-17T18:31:07.471Z,25.47
2022-08-17T18:33:38.164Z,25.43
2022-08-17T18:36:07.037Z,25.40
2022-08-17T18:38:35.789Z,25.35
2022-08-17T18:41:17.282Z,25.32
2022-08-17T18:43:53.460Z,25.27
2022-08-17T18:46:28.672Z,25.23
2022-08-17T18:48:59.886Z,25.19
2022-08-17T18:51:40.629Z,25.14
2022-08-17T18:54:16.006Z,25.10
2022-08-17T18:56:44.944Z,25.06
2022-08-17T18:59:17.996Z,25.03
2022-08-17T19:01:53.800Z,24.98
2022-08-17T19:04:34.174Z,24.95
2022-08-17T19:07:04.724Z,24.90
2022-08-17T19:09:35.045Z,24.85
2022-08-17T19:12:05.041Z,24.80
2022-08-17T19:14:33.054Z,24.77
2022-08-17T19:17:05.862Z,24.74
2022-08-17T19:19:39.071Z,24.71
2022-08-17T19:22:10.510Z,24.67
2022-08-17T19:24:47.643Z,24.64
2022-08-17T19:27:18.286Z,24.61
2022-08-17T19:29:51.209Z,24.56
2022-08-17T19:32:20.991Z,24.53
2022-08-17T19:34:50.155Z,24.50
2022-08-17T19:37:25.735Z,24.47
2022-08-17T19:39:58.596Z,24.43
2022-08-17T19:42:32.947Z,24.39
2022-08-17T19:45:02.978Z,24.37
2022-08-17T19:47:54.168Z,24.33
2022-08-17T19:50:31.079Z,24.29
2022-08-17T19:53:03.354Z,24.26
2022-08-17T19:55:33.028Z,24.23
2022-08-17T19:58:06.017Z,24.19
2022-08-17T20:00:36.113Z,24.15
2022-08-17T20:03:06.328Z,24.13
2022-08-17T20:06:08.714Z,24.10
2022-08-17T20:08:27.394Z,24.07
2022-08-17T20:10:57.427Z,24.04
2022-08-17T20:13:33.542Z,24.01
2022-08-17T20:16:02.092Z,23.99
2022-08-17T20:18:37.751Z,23.96
2022-08-17T20:21:20.267Z,23.93
2022-08-17T20:23:52.489Z,23.89
2022-08-17T20:26:22.106Z,23.86
2022-08-17T20:29:04.629Z,23.83
2022-08-17T20:31:46.023Z,23.80
2022-08-17T20:34:33.604Z,23.76
2022-08-17T20:37:07.933Z,23.72
2022-08-17T20:39:38.315Z,23.69
2022-08-17T20:42:08.751Z,23.66
2022-08-17T20:44:37.618Z,23.63
2022-08-17T20:47:08.359Z,23.60
2022-08-17T20:49:47.118Z,23.57
2022-08-17T20:52:36.234Z,23.52
2022-08-17T20:55:05.104Z,23.48
2022-08-17T20:57:47.771Z,23.45
2022-08-17T21:00:50.179Z,23.42
2022-08-17T21:03:51.236Z,23.38
2022-08-17T21:06:21.634Z,23.33
2022-08-17T21:08:54.261Z,23.30
2022-08-17T21:11:58.247Z,23.29
2022-08-17T21:14:38.035Z,23.25
2022-08-17T21:17:23.433Z,23.22
2022-08-17T21:20:10.997Z,23.20
2022-08-17T21:22:48.553Z,23.16
2022-08-17T21:25:27.950Z,23.14
2022-08-17T21:28:02.004Z,23.11
2022-08-17T21:30:44.492Z,23.09
2022-08-17T21:33:18.159Z,23.07
2022-08-17T21:35:52.268Z,23.05
2022-08-17T21:38:22.169Z,23.01
2022-08-17T21:40:52.656Z,23.00
2022-08-17T21:43:25.196Z,22.97
2022-08-17T21:45:58.692Z,22.95
2022-08-17T21:48:27.126Z,22.93
2022-08-17T21:51:00.816Z,22.89
2022-08-17T21:53:33.372Z,22.87
2022-08-17T21:56:02.581Z,22.85
2022-08-17T21:58:33.297Z,22.83
2022-08-17T22:01:14.586Z,22.81
2022-08-17T22:03:42.818Z,22.78
2022-08-17T22:06:21.813Z,22.76
2022-08-17T22:09:00.107Z,22.74
2022-08-17T22:11:29.247Z,22.71
2022-08-17T22:14:05.953Z,22.69
2022-08-17T22:16:33.924Z,22.66
2022-08-17T22:19:01.744Z,22.64
2022-08-17T22:21:29.466Z,22.61
2022-08-17T22:24:06.432Z,22.59
2022-08-17T22:26:52.678Z,22.56
2022-08-17T22:29:53.372Z,22.53
2022-08-17T22:32:37.490Z,22.49
2022-08-17T22:35:28.451Z,22.47
2022-08-17T22:37:56.436Z,22.44
2022-08-17T22:40:26.213Z,22.41
2022-08-17T22:42:54.139Z,22.38
2022-08-17T22:45:23.884Z,22.37
2022-08-17T22:47:56.585Z,22.34
2022-08-17T22:50:25.238Z,22.32
2022-08-17T22:53:18.322Z,22.29
2022-08-17T22:56:11.008Z,22.25
2022-08-17T22:59:00.923Z,22.21
2022-08-17T23:01:29.942Z,22.18
2022-08-17T23:04:01.242Z,22.16
2022-08-17T23:06:29.235Z,22.13
2022-08-17T23:08:57.591Z,22.11
2022-08-17T23:11:36.944Z,22.08
2022-08-17T23:14:16.160Z,22.06
2022-08-17T23:16:44.188Z,22.02
2022-08-17T23:19:17.810Z,21.99
2022-08-17T23:21:45.942Z,21.94
2022-08-17T23:24:15.039Z,21.91
2022-08-17T23:26:42.736Z,21.88
2022-08-17T23:29:10.366Z,21.84
2022-08-17T23:31:39.698Z,21.82
2022-08-17T23:34:09.934Z,21.81
2022-08-17T23:36:39.395Z,21.78
2022-08-17T23:39:07.264Z,21.75
2022-08-17T23:41:37.159Z,21.73
2022-08-17T23:44:06.398Z,21.69
2022-08-17T23:46:34.596Z,21.65
2022-08-17T23:49:03.208Z,21.62
2022-08-17T23:51:34.107Z,21.58
2022-08-17T23:54:08.160Z,21.56
2022-08-17T23:56:41.907Z,21.53
2022-08-17T23:59:09.948Z,21.51
